.
WxDataArchive / Data Records for 2015-01-10
2015-01-09 January 2015 2015-01-11

Data Records for Saturday, 10 January 2015

Time	Temp	Chill	HIndex	Humid	Dewpt	 Wind 	HiWind	WindDir	Rain 	Barom
-----	----	-----	------	-----	-----	------	------	-------	-----	-----
00:00	1.3	1.3	1.3	62	-8.6	1	3	248	0.00	30.466 
00:05	1.3	1.3	1.3	62	-8.6	1	2	248	0.00	30.466 
00:10	1.1	1.1	1.1	62	-8.8	1	6	248	0.00	30.466 
00:15	1.1	1.1	1.1	62	-8.8	1	3	248	0.00	30.468 
00:20	1.1	1.1	1.1	63	-8.5	1	3	248	0.00	30.468 
00:25	1.1	1.1	1.1	62	-8.8	1	5	248	0.00	30.468 
00:30	1.1	1.1	1.1	63	-8.5	1	3	248	0.00	30.472 
00:35	1.1	1.1	1.1	63	-8.5	1	3	248	0.00	30.472 
00:40	0.9	0.9	0.9	63	-8.7	1	4	248	0.00	30.472 
00:45	1.1	1.1	1.1	63	-8.5	1	3	248	0.00	30.472 
00:50	0.9	0.9	0.9	63	-8.7	1	4	248	0.00	30.472 
00:55	0.9	0.9	0.9	63	-8.7	1	3	248	0.00	30.472 
01:00	0.9	0.9	0.9	63	-8.7	1	3	248	0.00	30.472 
01:05	0.7	0.7	0.7	63	-8.9	1	2	248	0.00	30.472 
01:10	0.7	0.7	0.7	64	-8.6	0	2	248	0.00	30.472 
01:15	0.7	0.7	0.7	64	-8.6	1	3	248	0.00	30.474 
01:20	0.7	0.7	0.7	64	-8.6	1	3	248	0.00	30.474 
01:25	0.7	0.7	0.7	65	-8.3	1	3	248	0.00	30.474 
01:30	0.7	0.7	0.7	65	-8.3	1	4	248	0.00	30.480 
01:35	0.5	0.5	0.5	65	-8.5	0	3	270	0.00	30.480 
01:40	0.5	0.5	0.5	65	-8.5	0	2	270	0.00	30.480 
01:45	0.5	0.5	0.5	65	-8.5	0	3	270	0.00	30.482 
01:50	0.3	0.3	0.3	65	-8.6	0	2	270	0.00	30.482 
01:55	0.3	0.3	0.3	66	-8.3	0	2	270	0.00	30.482 
02:00	0.3	0.3	0.3	66	-8.3	1	3	270	0.00	30.486 
02:05	0.3	0.3	0.3	66	-8.3	1	5	270	0.00	30.486 
02:10	0.3	0.3	0.3	66	-8.3	0	3	248	0.00	30.486 
02:15	0.3	0.3	0.3	66	-8.3	1	4	248	0.00	30.491 
02:20	0.3	0.3	0.3	66	-8.3	0	2	248	0.00	30.491 
02:25	0.3	0.3	0.3	66	-8.3	0	3	248	0.00	30.491 
02:30	0.3	0.3	0.3	67	-8.0	0	2	248	0.00	30.498 
02:35	0.3	0.3	0.3	67	-8.0	1	3	248	0.00	30.498 
02:40	0.3	0.3	0.3	67	-8.0	1	3	225	0.00	30.498 
02:45	0.1	0.1	0.1	67	-8.2	0	3	248	0.00	30.505 
02:50	0.1	0.1	0.1	67	-8.2	0	3	248	0.00	30.505 
02:55	0.1	0.1	0.1	67	-8.2	1	3	248	0.00	30.505 
03:00	0.0	0.0	0.0	67	-8.3	0	2	248	0.00	30.506 
03:05	0.0	0.0	0.0	67	-8.3	0	3	248	0.00	30.506 
03:10	-0.2	-0.2	-0.2	67	-8.5	0	2	248	0.00	30.506 
03:15	-0.2	-0.2	-0.2	67	-8.5	0	3	248	0.00	30.506 
03:20	-0.2	-0.2	-0.2	68	-8.2	0	2	248	0.00	30.506 
03:25	-0.2	-0.2	-0.2	68	-8.2	0	2	248	0.00	30.506 
03:30	-0.2	-0.2	-0.2	68	-8.2	0	2	248	0.00	30.505 
03:35	-0.2	-0.2	-0.2	68	-8.2	1	4	248	0.00	30.505 
03:40	-0.2	-0.2	-0.2	68	-8.2	0	2	248	0.00	30.505 
03:45	-0.2	-0.2	-0.2	68	-8.2	1	3	248	0.00	30.505 
03:50	-0.2	-0.2	-0.2	68	-8.2	0	2	248	0.00	30.505 
03:55	-0.2	-0.2	-0.2	68	-8.2	0	3	248	0.00	30.505 
04:00	-0.4	-0.4	-0.4	68	-8.4	0	2	248	0.00	30.503 
04:05	-0.4	-0.4	-0.4	68	-8.4	0	2	248	0.00	30.503 
04:10	-0.6	-0.6	-0.6	68	-8.6	0	2	248	0.00	30.503 
04:15	-0.6	-0.6	-0.6	69	-8.3	1	3	248	0.00	30.509 
04:20	-0.6	-0.6	-0.6	69	-8.3	0	2	248	0.00	30.509 
04:25	-0.6	-0.6	-0.6	69	-8.3	0	1	248	0.00	30.509 
04:30	-0.8	-0.8	-0.8	69	-8.5	0	4	248	0.00	30.509 
04:35	-0.8	-0.8	-0.8	69	-8.5	1	2	248	0.00	30.509 
04:40	-0.8	-0.8	-0.8	69	-8.5	0	2	248	0.00	30.509 
04:45	-0.8	-0.8	-0.8	69	-8.5	0	3	248	0.00	30.503 
04:50	-0.8	-0.8	-0.8	69	-8.5	0	2	248	0.00	30.503 
04:55	-1.0	-1.0	-1.0	70	-8.4	1	3	248	0.00	30.503 
05:00	-1.0	-1.0	-1.0	70	-8.4	0	2	248	0.00	30.504 
05:05	-1.0	-1.0	-1.0	70	-8.4	0	3	248	0.00	30.504 
05:10	-1.0	-1.0	-1.0	70	-8.4	0	2	248	0.00	30.504 
05:15	-1.0	-1.0	-1.0	70	-8.4	0	2	248	0.00	30.503 
05:20	-1.0	-1.0	-1.0	70	-8.4	0	1	248	0.00	30.503 
05:25	-1.2	-1.2	-1.2	70	-8.6	0	1	248	0.00	30.503 
05:30	-1.2	-1.2	-1.2	70	-8.6	0	3	248	0.00	30.502 
05:35	-1.2	-1.2	-1.2	71	-8.3	0	2	248	0.00	30.502 
05:40	-1.4	-1.4	-1.4	71	-8.5	0	1	248	0.00	30.502 
05:45	-1.4	-1.4	-1.4	71	-8.5	0	2	248	0.00	30.507 
05:50	-1.4	-1.4	-1.4	71	-8.5	0	2	248	0.00	30.507 
05:55	-1.4	-1.4	-1.4	71	-8.5	0	1	248	0.00	30.507 
06:00	-1.6	-1.6	-1.6	71	-8.7	0	1	248	0.00	30.512 
06:05	-1.8	-1.8	-1.8	71	-8.9	0	1	248	0.00	30.512 
06:10	-1.8	-1.8	-1.8	71	-8.9	0	1	248	0.00	30.512 
06:15	-2.0	-2.0	-2.0	71	-9.1	0	2	248	0.00	30.517 
06:20	-2.0	-2.0	-2.0	71	-9.1	0	1	248	0.00	30.517 
06:25	-2.2	-2.2	-2.2	72	-9.0	0	2	248	0.00	30.517 
06:30	-2.2	-2.2	-2.2	72	-9.0	0	1	248	0.00	30.521 
06:35	-2.4	-2.4	-2.4	72	-9.2	0	1	248	0.00	30.521 
06:40	-2.4	-2.4	-2.4	72	-9.2	0	1	248	0.00	30.521 
06:45	-2.4	-2.4	-2.4	72	-9.2	0	1	248	0.00	30.527 
06:50	-2.4	-2.4	-2.4	72	-9.2	0	1	248	0.00	30.527 
06:55	-2.4	-2.4	-2.4	72	-9.2	0	0	---	0.00	30.527 
07:00	-2.6	-2.6	-2.6	72	-9.4	0	2	248	0.00	30.528 
07:05	-2.4	-2.4	-2.4	73	-8.9	0	1	248	0.00	30.528 
07:10	-2.4	-2.4	-2.4	73	-8.9	0	2	248	0.00	30.528 
07:15	-2.4	-2.4	-2.4	73	-8.9	0	2	248	0.00	30.532 
07:20	-2.4	-2.4	-2.4	73	-8.9	0	1	248	0.00	30.532 
07:25	-2.2	-2.2	-2.2	73	-8.7	0	1	248	0.00	30.532 
07:30	-2.2	-2.2	-2.2	73	-8.7	0	1	248	0.00	30.530 
07:35	-2.2	-2.2	-2.2	73	-8.7	0	2	248	0.00	30.530 
07:40	-2.2	-2.2	-2.2	73	-8.7	0	1	248	0.00	30.530 
07:45	-2.2	-2.2	-2.2	73	-8.7	0	1	248	0.00	30.525 
07:50	-2.2	-2.2	-2.2	73	-8.7	0	1	248	0.00	30.525 
07:55	-2.2	-2.2	-2.2	73	-8.7	0	1	248	0.00	30.525 
08:00	-2.4	-2.4	-2.4	73	-8.9	0	1	248	0.00	30.524 
08:05	-2.4	-2.4	-2.4	73	-8.9	0	1	248	0.00	30.524 
08:10	-2.4	-2.4	-2.4	73	-8.9	0	2	248	0.00	30.524 
08:15	-2.4	-2.4	-2.4	73	-8.9	0	1	248	0.00	30.531 
08:20	-2.2	-2.2	-2.2	73	-8.7	0	2	248	0.00	30.531 
08:25	-2.2	-2.2	-2.2	73	-8.7	0	2	248	0.00	30.531 
08:30	-2.2	-2.2	-2.2	73	-8.7	0	1	248	0.00	30.545 
08:35	-2.0	-2.0	-2.0	73	-8.5	0	1	248	0.00	30.545 
08:40	-1.8	-1.8	-1.8	73	-8.3	0	2	248	0.00	30.545 
08:45	-1.6	-1.6	-1.6	73	-8.1	0	3	248	0.00	30.546 
08:50	-1.4	-1.4	-1.4	73	-7.9	0	2	248	0.00	30.546 
08:55	-1.0	-1.0	-1.0	73	-7.5	1	3	248	0.00	30.546 
09:00	-0.8	-0.8	-0.8	73	-7.3	0	2	248	0.00	30.558 
09:05	-0.6	-0.6	-0.6	72	-7.4	0	4	248	0.00	30.558 
09:10	-0.4	-0.4	-0.4	72	-7.2	1	3	248	0.00	30.558 
09:15	-0.2	-0.2	-0.2	71	-7.3	1	4	248	0.00	30.563 
09:20	0.0	0.0	0.0	71	-7.1	0	3	248	0.00	30.563 
09:25	0.1	0.1	0.1	71	-7.0	0	2	248	0.00	30.563 
09:30	0.3	0.3	0.3	70	-7.1	1	4	248	0.00	30.562 
09:35	0.5	0.5	0.5	70	-6.9	0	4	248	0.00	30.562 
09:40	0.9	0.9	0.9	70	-6.6	0	3	248	0.00	30.562 
09:45	1.3	1.3	1.3	69	-6.5	0	3	248	0.00	30.566 
09:50	1.7	1.7	1.7	69	-6.1	0	3	248	0.00	30.566 
09:55	1.8	1.8	1.8	68	-6.3	1	2	248	0.00	30.566 
10:00	2.2	2.2	2.2	68	-5.9	0	3	248	0.00	30.564 
10:05	2.6	2.6	2.6	68	-5.5	0	3	248	0.00	30.564 
10:10	3.0	3.0	3.0	67	-5.4	1	3	248	0.00	30.564 
10:15	3.2	3.2	3.2	67	-5.2	0	3	248	0.00	30.570 
10:20	3.5	3.5	3.5	66	-5.3	1	6	248	0.00	30.570 
10:25	3.7	3.7	3.7	65	-5.4	1	3	248	0.00	30.570 
10:30	4.1	4.1	4.1	65	-5.0	1	6	270	0.00	30.565 
10:35	4.3	4.3	4.3	65	-4.8	0	4	248	0.00	30.565 
10:40	4.7	4.7	4.7	64	-4.8	1	3	248	0.00	30.565 
10:45	4.8	4.8	4.8	64	-4.7	1	3	248	0.00	30.565 
10:50	5.2	5.2	5.2	63	-4.6	2	7	248	0.00	30.565 
10:55	5.4	5.4	5.4	63	-4.4	1	4	248	0.00	30.565 
11:00	5.8	5.8	5.8	63	-4.0	1	4	248	0.00	30.557 
11:05	6.0	6.0	6.0	62	-4.2	1	4	248	0.00	30.557 
11:10	6.1	6.1	6.1	62	-4.1	1	4	248	0.00	30.557 
11:15	6.5	6.5	6.5	62	-3.7	1	4	248	0.00	30.552 
11:20	6.9	6.9	6.9	62	-3.3	0	4	248	0.00	30.552 
11:25	7.2	7.2	7.2	61	-3.4	1	4	248	0.00	30.552 
11:30	7.2	7.2	7.2	60	-3.7	1	6	248	0.00	30.543 
11:35	7.7	7.7	7.7	60	-3.3	0	3	248	0.00	30.543 
11:40	7.9	7.9	7.9	59	-3.4	1	4	248	0.00	30.543 
11:45	8.3	8.3	8.3	59	-3.0	1	3	248	0.00	30.539 
11:50	8.6	8.6	8.6	59	-2.8	0	2	248	0.00	30.539 
11:55	9.0	9.0	9.0	58	-2.7	1	3	248	0.00	30.539 
12:00	9.2	9.2	9.2	57	-2.9	1	3	248	0.00	30.536 
12:05	9.3	9.3	9.3	57	-2.8	0	2	248	0.00	30.536 
12:10	9.5	9.5	9.5	57	-2.6	0	3	248	0.00	30.536 
12:15	9.7	9.7	9.7	57	-2.4	0	3	248	0.00	30.520 
12:20	9.9	9.9	9.9	57	-2.2	0	2	248	0.00	30.520 
12:25	10.2	10.2	10.2	57	-2.0	0	3	248	0.00	30.520 
12:30	10.4	10.4	10.4	56	-2.2	0	2	248	0.00	30.519 
12:35	10.5	10.5	10.5	56	-2.1	0	3	248	0.00	30.519 
12:40	10.7	10.7	10.7	56	-1.9	0	2	45	0.00	30.519 
12:45	10.5	10.5	10.5	54	-2.8	0	3	248	0.00	30.506 
12:50	10.7	10.7	10.7	54	-2.6	1	5	248	0.00	30.506 
12:55	11.1	11.1	11.1	54	-2.3	1	3	248	0.00	30.506 
13:00	11.4	11.4	11.4	54	-2.0	0	3	248	0.00	30.511 
13:05	11.4	11.4	11.4	54	-2.0	1	3	248	0.00	30.511 
13:10	11.4	11.4	11.4	54	-2.0	1	6	248	0.00	30.511 
13:15	11.4	11.4	11.4	54	-2.0	1	5	90	0.00	30.510 
13:20	11.6	11.6	11.6	55	-1.4	1	6	225	0.00	30.510 
13:25	11.6	11.6	11.6	54	-1.8	2	5	248	0.00	30.510 
13:30	11.6	11.6	11.6	54	-1.8	1	5	248	0.00	30.502 
13:35	11.7	11.7	11.7	55	-1.3	1	3	225	0.00	30.502 
13:40	11.9	11.9	11.9	54	-1.5	2	6	248	0.00	30.502 
13:45	12.3	12.3	12.3	55	-0.7	1	4	248	0.00	30.495 
13:50	12.8	12.8	12.8	55	-0.3	1	3	248	0.00	30.495 
13:55	12.8	12.8	12.8	54	-0.7	1	5	248	0.00	30.495 
14:00	12.8	12.8	12.8	54	-0.7	2	5	248	0.00	30.501 
14:05	12.9	12.9	12.9	54	-0.6	2	7	248	0.00	30.501 
14:10	12.9	12.9	12.9	54	-0.6	2	5	248	0.00	30.501 
14:15	13.3	13.3	13.3	55	0.2	0	3	248	0.00	30.503 
14:20	13.6	13.6	13.6	54	0.1	1	4	248	0.00	30.503 
14:25	13.6	13.6	13.6	54	0.1	1	5	248	0.00	30.503 
14:30	13.8	13.8	13.8	54	0.3	1	6	248	0.00	30.500 
14:35	14.0	14.0	14.0	53	0.1	2	6	248	0.00	30.500 
14:40	14.0	14.0	14.0	53	0.1	2	6	248	0.00	30.500 
14:45	13.8	13.8	13.8	53	-0.1	2	6	248	0.00	30.498 
14:50	14.0	14.0	14.0	53	0.1	1	5	248	0.00	30.498 
14:55	14.1	14.1	14.1	53	0.2	1	4	248	0.00	30.498 
15:00	14.4	14.4	14.4	52	0.0	1	5	248	0.00	30.490 
15:05	14.4	14.4	14.4	52	0.0	1	4	248	0.00	30.490 
15:10	14.4	14.4	14.4	52	0.0	1	4	248	0.00	30.490 
15:15	14.6	14.6	14.6	52	0.2	0	2	248	0.00	30.468 
15:20	14.4	14.4	14.4	51	-0.4	1	4	248	0.00	30.468 
15:25	14.4	14.4	14.4	50	-0.8	0	3	45	0.00	30.468 
15:30	14.6	14.6	14.6	51	-0.2	0	1	45	0.00	30.465 
15:35	14.8	14.8	14.8	51	-0.0	0	2	45	0.00	30.465 
15:40	14.8	14.8	14.8	51	-0.0	0	3	22	0.00	30.465 
15:45	14.8	14.8	14.8	52	0.4	0	2	292	0.00	30.455 
15:50	14.4	14.4	14.4	52	0.0	1	4	90	0.00	30.455 
15:55	14.4	14.4	14.4	53	0.4	0	4	90	0.00	30.455 
16:00	14.1	14.1	14.1	53	0.2	2	7	112	0.00	30.451 
16:05	14.0	14.0	14.0	53	0.1	1	4	270	0.00	30.451 
16:10	14.0	14.0	14.0	53	0.1	1	4	90	0.00	30.451 
16:15	13.8	13.8	13.8	54	0.3	0	2	90	0.00	30.455 
16:20	14.0	14.0	14.0	54	0.5	0	4	90	0.00	30.455 
16:25	13.8	13.8	13.8	54	0.3	0	4	248	0.00	30.455 
16:30	13.8	13.8	13.8	55	0.7	0	3	90	0.00	30.455 
16:35	13.6	13.6	13.6	55	0.5	0	2	90	0.00	30.455 
16:40	13.8	13.8	13.8	54	0.3	0	3	90	0.00	30.455 
16:45	13.8	13.8	13.8	54	0.3	0	1	112	0.00	30.461 
16:50	13.6	13.6	13.6	54	0.1	0	3	112	0.00	30.461 
16:55	13.6	13.6	13.6	54	0.1	0	3	112	0.00	30.461 
17:00	13.3	13.3	13.3	54	-0.2	0	2	112	0.00	30.473 
17:05	13.1	13.1	13.1	55	0.0	0	3	112	0.00	30.473 
17:10	12.9	12.9	12.9	55	-0.2	0	2	112	0.00	30.473 
17:15	12.8	12.8	12.8	56	0.1	0	2	112	0.00	30.473 
17:20	12.6	12.6	12.6	56	-0.1	1	3	112	0.00	30.473 
17:25	12.4	12.4	12.4	58	0.5	1	4	112	0.00	30.473 
17:30	12.3	12.3	12.3	58	0.4	0	2	112	0.00	30.471 
17:35	12.1	12.1	12.1	59	0.6	0	2	112	0.00	30.471 
17:40	11.9	11.9	11.9	59	0.4	0	1	112	0.00	30.471 
17:45	11.6	11.6	11.6	60	0.4	0	2	112	0.00	30.464 
17:50	11.6	11.6	11.6	60	0.4	0	2	112	0.00	30.464 
17:55	11.4	11.4	11.4	61	0.6	0	1	112	0.00	30.464 
18:00	11.2	11.2	11.2	61	0.4	0	1	112	0.00	30.467 
18:05	11.2	11.2	11.2	62	0.8	1	4	112	0.00	30.467 
18:10	11.2	11.2	11.2	62	0.8	0	2	112	0.00	30.467 
18:15	11.2	11.2	11.2	62	0.8	0	2	112	0.00	30.456 
18:20	11.2	11.2	11.2	62	0.8	1	4	112	0.00	30.456 
18:25	11.4	11.4	11.4	62	0.9	2	5	112	0.00	30.456 
18:30	11.4	11.4	11.4	62	0.9	0	4	158	0.00	30.450 
18:35	11.4	11.4	11.4	62	0.9	0	1	158	0.00	30.450 
18:40	11.4	11.4	11.4	62	0.9	0	1	158	0.00	30.450 
18:45	11.6	11.6	11.6	63	1.5	0	0	---	0.00	30.476 
18:50	11.9	11.9	11.9	63	1.8	0	1	158	0.00	30.476 
18:55	12.1	12.1	12.1	63	2.0	0	1	158	0.00	30.476 
19:00	12.3	12.3	12.3	63	2.1	0	0	---	0.00	30.482 
19:05	12.4	12.4	12.4	62	1.9	0	1	158	0.00	30.482 
19:10	12.6	12.6	12.6	62	2.1	0	0	---	0.00	30.482 
19:15	12.8	12.8	12.8	62	2.3	0	0	---	0.00	30.473 
19:20	12.9	12.9	12.9	62	2.4	0	1	158	0.00	30.473 
19:25	13.1	13.1	13.1	63	2.9	0	0	---	0.00	30.473 
19:30	13.3	13.3	13.3	62	2.7	0	1	158	0.00	30.473 
19:35	13.3	13.3	13.3	62	2.7	0	1	158	0.00	30.473 
19:40	13.5	13.5	13.5	62	2.9	0	1	158	0.00	30.473 
19:45	13.5	13.5	13.5	62	2.9	0	1	158	0.00	30.465 
19:50	13.6	13.6	13.6	62	3.0	0	1	158	0.00	30.465 
19:55	13.6	13.6	13.6	62	3.0	0	2	158	0.00	30.465 
20:00	13.8	13.8	13.8	62	3.2	0	3	158	0.00	30.455 
20:05	13.8	13.8	13.8	62	3.2	0	1	135	0.00	30.455 
20:10	13.8	13.8	13.8	62	3.2	0	2	135	0.00	30.455 
20:15	13.8	13.8	13.8	63	3.6	0	1	135	0.00	30.453 
20:20	14.0	14.0	14.0	63	3.8	0	2	135	0.00	30.453 
20:25	14.0	14.0	14.0	63	3.8	0	1	135	0.00	30.453 
20:30	14.1	14.1	14.1	63	3.9	0	1	135	0.00	30.452 
20:35	14.1	14.1	14.1	63	3.9	1	2	112	0.00	30.452 
20:40	14.3	14.3	14.3	63	4.0	1	3	112	0.00	30.452 
20:45	14.3	14.3	14.3	63	4.0	1	3	90	0.00	30.437 
20:50	14.4	14.4	14.4	63	4.1	1	3	90	0.00	30.437 
20:55	14.4	14.4	14.4	63	4.1	1	4	90	0.00	30.437 
21:00	14.6	14.6	14.6	63	4.3	0	3	90	0.00	30.436 
21:05	14.8	14.8	14.8	64	4.9	0	2	90	0.00	30.436 
21:10	14.8	14.8	14.8	63	4.5	0	2	90	0.00	30.436 
21:15	14.9	14.9	14.9	63	4.6	0	2	90	0.00	30.435 
21:20	15.1	15.1	15.1	63	4.8	0	3	90	0.00	30.435 
21:25	15.4	15.4	15.4	63	5.1	0	2	90	0.00	30.435 
21:30	15.4	15.4	15.4	63	5.1	0	1	90	0.00	30.431 
21:35	15.6	15.6	15.6	62	4.9	0	2	90	0.00	30.431 
21:40	15.9	15.9	15.9	62	5.2	1	3	90	0.00	30.431 
21:45	16.1	16.1	16.1	62	5.4	0	2	90	0.00	30.419 
21:50	16.2	16.2	16.2	61	5.1	1	3	90	0.00	30.419 
21:55	16.5	16.5	16.5	61	5.4	0	4	90	0.00	30.419 
22:00	16.7	16.7	16.7	60	5.3	1	3	112	0.00	30.415 
22:05	16.9	16.9	16.9	60	5.4	1	4	90	0.00	30.415 
22:10	16.9	16.9	16.9	60	5.4	1	3	90	0.00	30.415 
22:15	17.0	17.0	17.0	61	5.9	1	3	112	0.00	30.403 
22:20	17.0	17.0	17.0	60	5.5	1	4	112	0.00	30.403 
22:25	17.2	17.2	17.2	61	6.1	1	3	112	0.00	30.403 
22:30	17.2	17.2	17.2	61	6.1	0	3	112	0.00	30.406 
22:35	17.3	17.3	17.3	61	6.2	1	4	112	0.00	30.406 
22:40	17.3	17.3	17.3	61	6.2	1	3	112	0.00	30.406 
22:45	17.5	17.5	17.5	61	6.4	1	3	112	0.00	30.393 
22:50	17.7	17.7	17.7	62	6.9	1	2	112	0.00	30.393 
22:55	17.8	17.8	17.8	62	7.0	1	3	112	0.00	30.393 
23:00	18.0	18.0	18.0	62	7.2	1	3	112	0.00	30.393 
23:05	18.1	18.1	18.1	62	7.3	0	3	68	0.00	30.393 
23:10	18.4	18.4	18.4	62	7.6	0	3	90	0.00	30.393 
23:15	18.6	18.6	18.6	62	7.8	0	1	90	0.00	30.388 
23:20	18.9	18.9	18.9	62	8.1	0	2	90	0.00	30.388 
23:25	19.1	19.1	19.1	61	7.9	0	2	90	0.00	30.388 
23:30	19.2	19.2	19.2	61	8.0	0	1	90	0.00	30.381 
23:35	19.7	19.7	19.7	61	8.5	1	3	90	0.00	30.381 
23:40	19.9	19.9	19.9	60	8.3	0	2	315	0.00	30.381 
23:45	20.2	20.2	20.2	60	8.6	0	4	90	0.00	30.373 
23:50	20.3	20.3	20.3	59	8.3	0	2	112	0.00	30.373 
23:55	20.5	20.5	20.5	59	8.5	0	4	248	0.00	30.373 

CoCoRaHS
IN-AL-39
A2 Web Hosting
Creative Commons License
GoDaddy
search engine by freefind advanced

loaded 2018-11-19 19:09:22 • last modified 2010-11-18 10:43:29
Privacy PolicyDisclaimer
• wx.awcolley.com is powered by PmWiki v.2002016 •
• all content (unless otherwise noted) © 2018 A W Colley